Time;durP1;ratioP1;P1;durP2;ratioP2;P2;SDS_P1;SDS_P2;PMS_P1;PMS_P2;Temp;Humidity;BMP_temperature;BMP_pressure;BME280_temperature;BME280_humidity;BME280_pressure;Samples;Min_cycle;Max_cycle;Signal;HPM_P1;HPM_P2
2021/10/05 00:00:40;;;;;;;5.07;1.50;;;;;;;;;;4406903;32;20234;-81
2021/10/05 00:03:11;;;;;;;4.47;1.75;;;;;;;;;;4407999;32;20176;-81
2021/10/05 00:05:36;;;;;;;2.90;1.30;;;;;;;;;;4408014;32;20169;-82
2021/10/05 00:08:01;;;;;;;8.52;1.75;;;;;;;;;;4406540;32;20174;-80
2021/10/05 00:10:37;;;;;;;6.72;1.90;;;;;;;;;;4406528;32;20550;-82
2021/10/05 00:13:12;;;;;;;5.12;1.40;;;;;;;;;;4398963;32;20215;-81
2021/10/05 00:15:37;;;;;;;4.93;1.52;;;;;;;;;;4378812;32;20161;-81
2021/10/05 00:18:03;;;;;;;3.70;1.58;;;;;;;;;;4378457;32;20167;-82
2021/10/05 00:20:28;;;;;;;5.40;1.50;;;;;;;;;;4386904;32;20231;-81
2021/10/05 00:22:58;;;;;;;6.30;1.42;;;;;;;;;;4405491;32;20200;-81
2021/10/05 00:25:24;;;;;;;2.33;1.10;;;;;;;;;;4404920;32;20287;-81
2021/10/05 00:27:52;;;;;;;2.35;1.35;;;;;;;;;;4405801;32;20587;-80
2021/10/05 00:30:18;;;;;;;2.78;1.20;;;;;;;;;;4405559;32;20165;-82
2021/10/05 00:32:43;;;;;;;5.87;1.10;;;;;;;;;;4406122;32;20246;-81
2021/10/05 00:35:12;;;;;;;4.40;1.27;;;;;;;;;;4406953;32;20154;-82
2021/10/05 00:37:45;;;;;;;4.75;1.20;;;;;;;;;;4405326;32;20189;-82
2021/10/05 00:40:14;;;;;;;4.00;1.20;;;;;;;;;;4402198;32;20238;-82
2021/10/05 00:42:42;;;;;;;3.47;1.05;;;;;;;;;;4405781;32;20232;-81
2021/10/05 00:45:08;;;;;;;5.07;1.17;;;;;;;;;;4405880;32;20184;-81
2021/10/05 00:47:33;;;;;;;2.45;0.82;;;;;;;;;;4398101;32;20542;-81
2021/10/05 00:49:58;;;;;;;3.40;0.98;;;;;;;;;;4383023;32;20359;-82
2021/10/05 00:52:24;;;;;;;4.30;1.33;;;;;;;;;;4377530;32;20192;-81
2021/10/05 00:54:49;;;;;;;6.40;1.25;;;;;;;;;;4377279;32;20193;-82
2021/10/05 00:57:17;;;;;;;4.65;1.20;;;;;;;;;;4377540;32;20227;-81
2021/10/05 00:59:47;;;;;;;2.70;0.93;;;;;;;;;;4378337;32;20158;-81
2021/10/05 01:02:16;;;;;;;4.25;1.00;;;;;;;;;;4377828;32;20177;-81
2021/10/05 01:04:42;;;;;;;4.43;1.00;;;;;;;;;;4382295;32;20174;-82
2021/10/05 01:07:09;;;;;;;2.10;0.90;;;;;;;;;;4396000;32;20213;-82
2021/10/05 01:09:35;;;;;;;4.18;1.10;;;;;;;;;;4394216;32;20183;-82
2021/10/05 01:12:01;;;;;;;3.20;1.15;;;;;;;;;;4404945;32;20188;-82
2021/10/05 01:14:27;;;;;;;2.62;1.12;;;;;;;;;;4393090;32;20182;-82
2021/10/05 01:16:53;;;;;;;4.60;1.00;;;;;;;;;;4404163;32;20162;-81
2021/10/05 01:19:19;;;;;;;6.90;1.15;;;;;;;;;;4400091;32;20268;-82
2021/10/05 01:21:45;;;;;;;4.25;1.17;;;;;;;;;;4405469;32;20468;-82
2021/10/05 01:24:12;;;;;;;3.50;1.00;;;;;;;;;;4401504;32;20157;-82
2021/10/05 01:26:46;;;;;;;6.00;1.17;;;;;;;;;;4404241;32;20178;-82
2021/10/05 01:29:16;;;;;;;2.28;1.00;;;;;;;;;;4404533;32;20176;-82
2021/10/05 01:31:42;;;;;;;4.62;1.10;;;;;;;;;;4386535;32;20499;-81
2021/10/05 01:34:16;;;;;;;3.33;0.93;;;;;;;;;;4395058;32;20247;-81
2021/10/05 01:36:42;;;;;;;2.78;1.02;;;;;;;;;;4394772;32;20180;-82
2021/10/05 01:39:19;;;;;;;4.97;1.45;;;;;;;;;;4404277;32;20498;-82
2021/10/05 01:41:54;;;;;;;2.67;1.10;;;;;;;;;;4396843;32;20209;-82
2021/10/05 01:44:37;;;;;;;4.78;1.30;;;;;;;;;;4404330;32;20174;-82
2021/10/05 01:47:22;;;;;;;4.32;1.10;;;;;;;;;;4391839;32;20281;-81
2021/10/05 01:49:47;;;;;;;2.58;1.20;;;;;;;;;;4404398;32;20154;-81
2021/10/05 01:52:13;;;;;;;4.25;1.42;;;;;;;;;;4401513;32;20204;-81
2021/10/05 01:54:47;;;;;;;3.78;1.00;;;;;;;;;;4391624;32;20545;-81
2021/10/05 01:57:16;;;;;;;4.87;1.10;;;;;;;;;;4392213;32;20172;-81
2021/10/05 01:59:50;;;;;;;5.40;1.10;;;;;;;;;;4392038;32;20236;-81
2021/10/05 02:02:18;;;;;;;3.62;1.30;;;;;;;;;;4392032;32;20141;-82
2021/10/05 02:04:49;;;;;;;4.35;1.50;;;;;;;;;;4391306;32;20170;-81
2021/10/05 02:07:14;;;;;;;5.18;1.20;;;;;;;;;;4391306;32;20158;-81
2021/10/05 02:09:47;;;;;;;6.00;1.40;;;;;;;;;;4391631;32;20181;-81
2021/10/05 02:12:18;;;;;;;4.70;1.50;;;;;;;;;;4392028;32;20228;-81
2021/10/05 02:14:46;;;;;;;4.10;1.20;;;;;;;;;;4391704;32;20173;-81
2021/10/05 02:17:15;;;;;;;6.12;1.40;;;;;;;;;;4391738;32;20146;-81
2021/10/05 02:19:43;;;;;;;5.55;1.70;;;;;;;;;;4391381;32;20153;-82
2021/10/05 02:22:22;;;;;;;;;;;;;;;;;;;;;
2021/10/05 02:24:48;;;;;;;4.15;1.60;;;;;;;;;;4405666;32;20138;-82
2021/10/05 02:27:21;;;;;;;3.67;1.10;;;;;;;;;;4391282;32;20511;-82
2021/10/05 02:29:49;;;;;;;5.15;1.20;;;;;;;;;;4391760;32;20217;-80
2021/10/05 02:35:17;;;;;;;8.40;1.15;;;;;;;;;;4372050;32;20178;-80
2021/10/05 02:37:43;;;;;;;2.58;1.02;;;;;;;;;;4405840;32;20142;-81
2021/10/05 02:40:19;;;;;;;3.60;0.90;;;;;;;;;;4378534;32;20257;-81
2021/10/05 02:42:52;;;;;;;4.60;1.10;;;;;;;;;;4391804;32;20158;-80
2021/10/05 02:45:20;;;;;;;4.80;1.23;;;;;;;;;;4391736;32;20583;-80
2021/10/05 02:47:53;;;;;;;7.35;1.20;;;;;;;;;;4405994;32;20181;-80
2021/10/05 02:50:18;;;;;;;5.78;1.85;;;;;;;;;;4391750;32;20221;-80
2021/10/05 02:52:49;;;;;;;5.35;1.20;;;;;;;;;;4405680;32;20165;-80
2021/10/05 02:55:23;;;;;;;3.67;1.10;;;;;;;;;;4393516;32;20252;-81
2021/10/05 02:57:48;;;;;;;2.10;1.02;;;;;;;;;;4400410;32;20180;-80
2021/10/05 03:00:20;;;;;;;6.43;1.23;;;;;;;;;;4403827;32;20158;-80
2021/10/05 03:02:45;;;;;;;4.65;1.30;;;;;;;;;;4391286;32;20158;-81
2021/10/05 03:05:10;;;;;;;4.93;1.35;;;;;;;;;;4391029;32;20281;-81
2021/10/05 03:07:39;;;;;;;2.80;1.80;;;;;;;;;;4390966;32;20174;-81
2021/10/05 03:10:11;;;;;;;5.97;1.52;;;;;;;;;;4390158;32;20247;-82
2021/10/05 03:12:40;;;;;;;5.75;1.60;;;;;;;;;;4391450;32;20178;-81
2021/10/05 03:15:05;;;;;;;3.85;1.33;;;;;;;;;;4404837;32;20142;-81
2021/10/05 03:17:30;;;;;;;2.85;1.35;;;;;;;;;;4391998;32;20185;-81
2021/10/05 03:19:56;;;;;;;6.75;1.60;;;;;;;;;;4393626;32;20181;-81
2021/10/05 03:22:30;;;;;;;8.75;1.58;;;;;;;;;;4404785;32;20142;-81
2021/10/05 03:24:59;;;;;;;7.85;1.80;;;;;;;;;;4392793;32;20162;-81
2021/10/05 03:27:35;;;;;;;4.43;1.48;;;;;;;;;;4393642;32;20185;-81
2021/10/05 03:30:00;;;;;;;6.95;1.80;;;;;;;;;;4394507;32;20188;-81
2021/10/05 03:32:26;;;;;;;3.92;1.52;;;;;;;;;;4389900;32;20162;-79
2021/10/05 03:34:51;;;;;;;5.25;1.30;;;;;;;;;;4378556;32;20208;-81
2021/10/05 03:37:27;;;;;;;4.62;2.12;;;;;;;;;;4378444;32;20225;-81
2021/10/05 03:39:53;;;;;;;7.03;1.50;;;;;;;;;;4367992;32;20170;-80
2021/10/05 03:42:18;;;;;;;4.50;1.48;;;;;;;;;;4378575;32;20200;-81
2021/10/05 03:44:46;;;;;;;5.03;1.65;;;;;;;;;;4378165;32;20162;-81
2021/10/05 03:47:23;;;;;;;4.53;1.65;;;;;;;;;;4378248;32;20197;-81
2021/10/05 03:49:55;;;;;;;6.15;1.73;;;;;;;;;;4378364;32;20161;-81
2021/10/05 03:52:20;;;;;;;3.72;1.40;;;;;;;;;;4380005;32;20186;-80
2021/10/05 03:54:46;;;;;;;3.37;1.45;;;;;;;;;;4378147;32;20280;-81
2021/10/05 03:57:18;;;;;;;5.78;1.73;;;;;;;;;;4378162;32;20221;-81
2021/10/05 03:59:51;;;;;;;4.22;1.45;;;;;;;;;;4378235;32;20170;-81
2021/10/05 04:02:20;;;;;;;3.33;1.50;;;;;;;;;;4378127;32;20501;-81
2021/10/05 04:04:50;;;;;;;3.00;1.40;;;;;;;;;;4377838;32;20200;-81
2021/10/05 04:07:35;;;;;;;2.37;1.48;;;;;;;;;;4378626;32;20150;-80
2021/10/05 04:10:06;;;;;;;3.87;2.40;;;;;;;;;;4377985;32;20158;-81
2021/10/05 04:12:32;;;;;;;4.68;1.50;;;;;;;;;;4377927;32;20185;-81
2021/10/05 04:15:04;;;;;;;3.87;1.40;;;;;;;;;;4377657;32;20241;-80
2021/10/05 04:17:36;;;;;;;2.75;1.60;;;;;;;;;;4392440;32;20209;-81
2021/10/05 04:20:02;;;;;;;4.75;1.45;;;;;;;;;;4377925;32;20181;-81
2021/10/05 04:22:28;;;;;;;1.98;1.30;;;;;;;;;;4378500;32;20162;-80
2021/10/05 04:24:59;;;;;;;4.47;1.55;;;;;;;;;;4378612;32;20173;-81
2021/10/05 04:27:25;;;;;;;4.93;1.62;;;;;;;;;;4382371;32;20224;-80
2021/10/05 04:29:54;;;;;;;4.68;1.58;;;;;;;;;;4390522;32;20218;-82
2021/10/05 04:32:28;;;;;;;7.37;1.70;;;;;;;;;;4391929;32;20530;-82
2021/10/05 04:34:56;;;;;;;5.43;1.77;;;;;;;;;;4392948;32;20204;-82
2021/10/05 04:37:39;;;;;;;4.82;1.55;;;;;;;;;;4392431;32;20209;-82
2021/10/05 04:40:14;;;;;;;5.80;1.55;;;;;;;;;;4393124;32;20146;-81
2021/10/05 04:42:42;;;;;;;4.55;1.73;;;;;;;;;;4393004;32;20526;-81
2021/10/05 04:45:26;;;;;;;5.85;1.52;;;;;;;;;;4403457;32;20139;-82
2021/10/05 04:47:52;;;;;;;3.45;1.70;;;;;;;;;;4393496;32;20185;-82
2021/10/05 04:50:17;;;;;;;3.42;1.37;;;;;;;;;;4380876;32;20170;-85
2021/10/05 04:52:43;;;;;;;6.47;1.98;;;;;;;;;;4393122;32;20149;-83
2021/10/05 04:55:14;;;;;;;4.70;1.50;;;;;;;;;;4392577;32;20161;-83
2021/10/05 04:57:40;;;;;;;3.15;1.65;;;;;;;;;;4391202;32;20269;-81
2021/10/05 05:00:07;;;;;;;6.93;1.70;;;;;;;;;;4391901;32;20177;-82
2021/10/05 05:02:33;;;;;;;5.12;1.98;;;;;;;;;;4389707;32;20492;-80
2021/10/05 05:04:58;;;;;;;3.03;1.40;;;;;;;;;;4377597;32;20170;-81
2021/10/05 05:07:26;;;;;;;7.12;1.55;;;;;;;;;;4377205;32;20166;-80
2021/10/05 05:09:52;;;;;;;9.15;1.87;;;;;;;;;;4365384;32;20154;-81
2021/10/05 05:12:17;;;;;;;6.87;1.75;;;;;;;;;;4376890;32;20630;-81
2021/10/05 05:14:48;;;;;;;8.77;1.80;;;;;;;;;;4378329;32;20169;-82
2021/10/05 05:17:14;;;;;;;4.50;1.62;;;;;;;;;;4392204;32;20178;-80
2021/10/05 05:19:39;;;;;;;4.25;1.87;;;;;;;;;;4400198;32;20556;-80
2021/10/05 05:22:11;;;;;;;3.53;1.87;;;;;;;;;;4392205;32;20216;-79
2021/10/05 05:24:36;;;;;;;3.35;1.80;;;;;;;;;;4392429;32;20438;-80
2021/10/05 05:27:02;;;;;;;4.47;1.90;;;;;;;;;;4392334;32;20181;-81
2021/10/05 05:29:27;;;;;;;6.53;1.80;;;;;;;;;;4405914;32;20130;-79
2021/10/05 05:31:52;;;;;;;3.50;1.60;;;;;;;;;;4392531;32;20185;-78
2021/10/05 05:34:18;;;;;;;4.87;2.03;;;;;;;;;;4392181;32;20161;-80
2021/10/05 05:36:44;;;;;;;5.30;1.83;;;;;;;;;;4405671;32;20139;-79
2021/10/05 05:39:09;;;;;;;6.55;2.30;;;;;;;;;;4391981;32;20208;-80
2021/10/05 05:41:35;;;;;;;5.22;1.70;;;;;;;;;;4391942;32;20192;-79
2021/10/05 05:44:08;;;;;;;5.93;2.00;;;;;;;;;;4391969;32;20499;-79
2021/10/05 05:46:33;;;;;;;2.78;1.45;;;;;;;;;;4392358;32;20161;-79
2021/10/05 05:48:58;;;;;;;7.85;2.30;;;;;;;;;;4391423;32;20205;-79
2021/10/05 05:51:23;;;;;;;5.28;1.80;;;;;;;;;;4391772;32;20196;-80
2021/10/05 05:53:49;;;;;;;3.37;1.55;;;;;;;;;;4390975;32;20193;-79
2021/10/05 05:56:14;;;;;;;5.50;1.65;;;;;;;;;;4391464;32;20157;-78
2021/10/05 05:58:39;;;;;;;4.75;1.73;;;;;;;;;;4392128;32;20146;-77
2021/10/05 06:01:05;;;;;;;4.62;1.90;;;;;;;;;;4392435;32;20184;-80
2021/10/05 06:03:30;;;;;;;2.47;1.60;;;;;;;;;;4391816;32;20506;-79
2021/10/05 06:05:55;;;;;;;7.05;1.87;;;;;;;;;;4391596;32;20505;-78
2021/10/05 06:08:21;;;;;;;4.03;1.87;;;;;;;;;;4389576;32;20580;-79
2021/10/05 06:10:46;;;;;;;4.28;1.73;;;;;;;;;;4386904;32;20201;-79
2021/10/05 06:13:12;;;;;;;6.35;2.05;;;;;;;;;;4387106;32;20188;-74
2021/10/05 06:15:37;;;;;;;4.30;1.75;;;;;;;;;;4401676;32;20158;-78
2021/10/05 06:18:02;;;;;;;6.75;1.90;;;;;;;;;;4383552;32;20248;-78
2021/10/05 06:20:28;;;;;;;3.20;1.70;;;;;;;;;;4390490;32;20229;-79
2021/10/05 06:22:59;;;;;;;5.90;1.90;;;;;;;;;;4390995;32;20595;-78
2021/10/05 06:25:26;;;;;;;5.65;1.70;;;;;;;;;;4390620;32;20630;-79
2021/10/05 06:28:01;;;;;;;5.37;2.00;;;;;;;;;;4391111;32;20474;-79
2021/10/05 06:30:29;;;;;;;3.58;1.80;;;;;;;;;;4387317;32;20224;-78
2021/10/05 06:32:55;;;;;;;4.40;1.90;;;;;;;;;;4390426;32;20165;-80
2021/10/05 06:35:25;;;;;;;7.12;2.10;;;;;;;;;;4399014;32;20197;-78
2021/10/05 06:37:53;;;;;;;6.15;1.70;;;;;;;;;;4390921;32;20188;-78
2021/10/05 06:40:24;;;;;;;3.35;1.98;;;;;;;;;;4391048;32;20175;-78
2021/10/05 06:42:49;;;;;;;4.57;2.10;;;;;;;;;;4390989;32;20225;-78
2021/10/05 06:45:15;;;;;;;7.05;2.33;;;;;;;;;;4390788;32;20170;-78
2021/10/05 06:48:06;;;;;;;5.25;2.10;;;;;;;;;;4390903;32;20181;-78
2021/10/05 06:50:34;;;;;;;3.42;1.80;;;;;;;;;;4388950;32;20315;-79
2021/10/05 06:52:59;;;;;;;3.87;1.70;;;;;;;;;;4383125;32;20635;-78
2021/10/05 06:55:25;;;;;;;4.55;1.90;;;;;;;;;;4379011;32;20181;-79
2021/10/05 06:57:50;;;;;;;4.57;1.80;;;;;;;;;;4378942;32;20174;-79
2021/10/05 07:00:26;;;;;;;3.67;1.60;;;;;;;;;;4378915;32;20307;-78
2021/10/05 07:03:03;;;;;;;4.05;1.70;;;;;;;;;;4378978;32;20158;-80
2021/10/05 07:05:28;;;;;;;7.93;2.42;;;;;;;;;;4379060;32;20223;-79
2021/10/05 07:07:54;;;;;;;7.30;1.70;;;;;;;;;;4378990;32;20146;-79
2021/10/05 07:10:20;;;;;;;6.90;2.05;;;;;;;;;;4379049;32;20248;-78
2021/10/05 07:12:45;;;;;;;3.45;1.80;;;;;;;;;;4392522;32;20224;-79
2021/10/05 07:15:14;;;;;;;3.00;1.50;;;;;;;;;;4392698;32;20126;-79
2021/10/05 07:17:39;;;;;;;2.70;1.50;;;;;;;;;;4378082;32;20151;-79
2021/10/05 07:20:14;;;;;;;4.65;1.52;;;;;;;;;;4378658;32;20180;-79
2021/10/05 07:22:45;;;;;;;4.72;1.60;;;;;;;;;;4378664;32;20154;-79
2021/10/05 07:25:10;;;;;;;5.60;1.90;;;;;;;;;;4378656;32;20151;-80
2021/10/05 07:27:52;;;;;;;4.70;1.70;;;;;;;;;;4393212;32;20158;-80
2021/10/05 07:30:48;;;;;;;5.28;1.95;;;;;;;;;;4378909;32;20153;-80
2021/10/05 07:33:08;;;;;;;3.42;1.60;;;;;;;;;;4404695;32;20162;-79
2021/10/05 07:35:37;;;;;;;4.37;1.60;;;;;;;;;;4392098;32;20171;-78
2021/10/05 07:38:19;;;;;;;4.47;1.60;;;;;;;;;;4392596;32;20217;-79
2021/10/05 07:40:48;;;;;;;4.82;2.03;;;;;;;;;;4389847;32;20510;-80
2021/10/05 07:43:14;;;;;;;2.25;1.30;;;;;;;;;;4378298;32;20189;-78
2021/10/05 07:45:39;;;;;;;10.05;1.85;;;;;;;;;;4378416;32;20280;-79
2021/10/05 07:48:05;;;;;;;9.10;1.90;;;;;;;;;;4378527;32;20172;-79
2021/10/05 07:50:33;;;;;;;4.75;1.58;;;;;;;;;;4378222;32;20596;-80
2021/10/05 07:52:58;;;;;;;3.33;1.52;;;;;;;;;;4378128;32;20155;-79
2021/10/05 07:55:33;;;;;;;6.53;1.50;;;;;;;;;;4377920;32;20180;-80
2021/10/05 07:58:02;;;;;;;8.23;1.50;;;;;;;;;;4378582;32;20158;-79
2021/10/05 08:00:28;;;;;;;5.18;1.50;;;;;;;;;;4392192;32;20201;-79
2021/10/05 08:02:53;;;;;;;5.47;1.40;;;;;;;;;;4378026;32;20181;-79
2021/10/05 08:05:19;;;;;;;2.50;1.10;;;;;;;;;;4374392;32;20233;-79
2021/10/05 08:07:45;;;;;;;2.72;1.50;;;;;;;;;;4363055;32;20155;-78
2021/10/05 08:10:15;;;;;;;6.45;1.55;;;;;;;;;;4376698;32;20126;-80
2021/10/05 08:13:41;;;;;;;6.10;1.73;;;;;;;;;;4363319;32;20204;-81
2021/10/05 08:15:33;;;;;;;6.97;1.75;;;;;;;;;;4369554;32;20171;-79
2021/10/05 08:17:59;;;;;;;3.15;1.45;;;;;;;;;;4363370;32;20233;-80
2021/10/05 08:20:34;;;;;;;4.95;1.52;;;;;;;;;;4363089;32;20201;-80
2021/10/05 08:23:00;;;;;;;3.33;1.48;;;;;;;;;;4377584;32;20617;-79
2021/10/05 08:25:26;;;;;;;6.15;1.40;;;;;;;;;;4363349;32;20146;-79
2021/10/05 08:27:51;;;;;;;8.60;1.58;;;;;;;;;;4362590;32;20163;-80
2021/10/05 08:30:17;;;;;;;7.10;1.52;;;;;;;;;;4362903;32;20489;-80
2021/10/05 08:32:43;;;;;;;4.47;1.30;;;;;;;;;;4364681;32;20159;-79
2021/10/05 08:35:15;;;;;;;5.95;1.33;;;;;;;;;;4373716;32;20159;-79
2021/10/05 08:37:43;;;;;;;7.15;1.50;;;;;;;;;;4371314;32;20240;-79
2021/10/05 08:40:11;;;;;;;2.78;1.23;;;;;;;;;;4390601;32;20249;-79
2021/10/05 08:42:39;;;;;;;4.95;1.60;;;;;;;;;;4390391;32;20488;-80
2021/10/05 08:45:14;;;;;;;5.18;1.30;;;;;;;;;;4380057;32;20154;-81
2021/10/05 08:48:09;;;;;;;11.70;1.40;;;;;;;;;;4379056;32;20242;-80
2021/10/05 08:50:34;;;;;;;2.78;1.10;;;;;;;;;;4391665;32;20162;-80
2021/10/05 08:53:09;;;;;;;2.53;1.37;;;;;;;;;;4375015;32;20537;-80
2021/10/05 08:55:35;;;;;;;5.30;1.30;;;;;;;;;;4362520;32;20178;-79
2021/10/05 08:58:00;;;;;;;3.45;0.98;;;;;;;;;;4362397;32;20178;-79
2021/10/05 09:00:30;;;;;;;4.35;0.93;;;;;;;;;;4362437;32;20299;-80
2021/10/05 09:03:21;;;;;;;2.55;0.95;;;;;;;;;;4362261;32;20174;-80
2021/10/05 09:06:08;;;;;;;4.90;1.30;;;;;;;;;;4379894;32;20204;-81
2021/10/05 09:08:38;;;;;;;3.00;1.10;;;;;;;;;;4365545;32;20159;-81
2021/10/05 09:11:11;;;;;;;2.03;0.90;;;;;;;;;;4377254;32;20158;-80
2021/10/05 09:13:49;;;;;;;4.22;1.00;;;;;;;;;;4377401;32;20155;-80
2021/10/05 09:16:22;;;;;;;2.55;1.10;;;;;;;;;;4384941;32;20153;-80
2021/10/05 09:19:40;;;;;;;8.50;1.23;;;;;;;;;;4407600;32;20274;-80
2021/10/05 09:22:14;;;;;;;3.20;1.12;;;;;;;;;;4359637;32;20127;-80
2021/10/05 09:25:10;;;;;;;2.62;1.02;;;;;;;;;;4346254;33;20193;-79
2021/10/05 09:27:58;;;;;;;4.35;1.08;;;;;;;;;;4396697;32;20184;-78
2021/10/05 09:30:33;;;;;;;3.42;0.90;;;;;;;;;;4407121;32;20192;-80
2021/10/05 09:33:20;;;;;;;5.57;1.23;;;;;;;;;;4407556;32;20172;-80
2021/10/05 09:35:47;;;;;;;4.80;1.00;;;;;;;;;;4419733;32;20163;-80
2021/10/05 09:38:26;;;;;;;5.55;1.20;;;;;;;;;;4406815;32;20154;-79
2021/10/05 09:41:09;;;;;;;2.75;0.80;;;;;;;;;;4391705;32;20207;-78
2021/10/05 09:43:44;;;;;;;4.53;1.08;;;;;;;;;;4402355;32;20243;-79
2021/10/05 09:46:17;;;;;;;3.47;0.95;;;;;;;;;;4397456;32;20189;-80
2021/10/05 09:48:46;;;;;;;5.00;1.10;;;;;;;;;;4391885;32;20223;-79
2021/10/05 09:51:24;;;;;;;2.22;0.90;;;;;;;;;;4391729;32;20189;-79
2021/10/05 09:53:53;;;;;;;3.65;0.90;;;;;;;;;;4391831;32;20240;-80
2021/10/05 09:56:59;;;;;;;2.55;1.02;;;;;;;;;;4391918;32;20150;-80
2021/10/05 09:59:24;;;;;;;3.22;1.10;;;;;;;;;;4404711;32;20192;-79
2021/10/05 10:01:50;;;;;;;4.28;1.02;;;;;;;;;;4391804;32;20205;-80
2021/10/05 10:04:36;;;;;;;3.28;1.25;;;;;;;;;;4389629;32;20545;-79
2021/10/05 10:07:01;;;;;;;4.32;0.93;;;;;;;;;;4404625;32;20170;-77
2021/10/05 10:09:27;;;;;;;9.20;1.17;;;;;;;;;;4391300;32;20158;-80
2021/10/05 10:12:00;;;;;;;4.72;0.80;;;;;;;;;;4391162;32;20162;-79
2021/10/05 10:14:27;;;;;;;1.73;0.90;;;;;;;;;;4391223;32;20157;-79
2021/10/05 10:16:52;;;;;;;3.47;1.00;;;;;;;;;;4391312;32;20231;-80
2021/10/05 10:19:28;;;;;;;5.50;1.30;;;;;;;;;;4405440;32;20628;-77
2021/10/05 10:22:22;;;;;;;4.50;1.00;;;;;;;;;;4391378;32;20177;-79
2021/10/05 10:24:52;;;;;;;2.97;1.00;;;;;;;;;;4384181;32;20161;-79
2021/10/05 10:27:18;;;;;;;4.20;0.95;;;;;;;;;;4390818;32;20185;-80
2021/10/05 10:29:46;;;;;;;2.35;1.10;;;;;;;;;;4390897;32;20477;-79
2021/10/05 10:32:13;;;;;;;2.92;1.00;;;;;;;;;;4390824;32;20150;-77
2021/10/05 10:34:58;;;;;;;2.30;1.00;;;;;;;;;;4395922;32;20158;-81
2021/10/05 10:37:27;;;;;;;2.97;0.70;;;;;;;;;;4391043;32;20158;-79
2021/10/05 10:39:59;;;;;;;3.45;1.10;;;;;;;;;;4411966;32;20452;-80
2021/10/05 10:42:30;;;;;;;4.32;1.20;;;;;;;;;;4397991;32;20575;-80
2021/10/05 10:44:58;;;;;;;4.68;0.93;;;;;;;;;;4403591;32;20490;-80
2021/10/05 10:47:38;;;;;;;5.22;0.90;;;;;;;;;;4393230;32;20225;-80
2021/10/05 10:50:19;;;;;;;2.70;0.88;;;;;;;;;;4376021;32;20193;-80
2021/10/05 10:52:50;;;;;;;3.83;0.88;;;;;;;;;;4377112;32;20150;-82
2021/10/05 10:55:18;;;;;;;4.32;1.23;;;;;;;;;;4377234;32;20224;-77
2021/10/05 10:58:05;;;;;;;2.70;0.90;;;;;;;;;;4375983;32;20154;-84
2021/10/05 11:00:49;;;;;;;7.57;1.02;;;;;;;;;;4381605;32;20170;-82
2021/10/05 11:03:25;;;;;;;2.80;0.82;;;;;;;;;;4388400;32;20246;-80
2021/10/05 11:05:57;;;;;;;3.53;0.77;;;;;;;;;;4388784;32;20161;-81
2021/10/05 11:08:22;;;;;;;6.90;1.35;;;;;;;;;;4375494;32;20158;-80
2021/10/05 11:10:48;;;;;;;3.65;1.08;;;;;;;;;;4388890;32;20154;-83
2021/10/05 11:13:16;;;;;;;3.35;0.75;;;;;;;;;;4388635;32;20192;-78
2021/10/05 11:15:51;;;;;;;3.30;0.80;;;;;;;;;;4375629;32;20232;-79
2021/10/05 11:18:20;;;;;;;3.25;1.12;;;;;;;;;;4389434;32;20138;-79
2021/10/05 11:20:54;;;;;;;4.57;1.15;;;;;;;;;;4375340;32;20189;-80
2021/10/05 11:23:20;;;;;;;5.53;1.25;;;;;;;;;;4375830;32;20542;-79
2021/10/05 11:25:46;;;;;;;4.37;1.15;;;;;;;;;;4375147;32;20174;-80
2021/10/05 11:28:12;;;;;;;3.60;1.00;;;;;;;;;;4375540;32;20162;-78
2021/10/05 11:30:48;;;;;;;4.10;1.25;;;;;;;;;;4375216;32;20162;-80
2021/10/05 11:33:50;;;;;;;8.93;0.85;;;;;;;;;;4389101;32;20149;-81
2021/10/05 11:36:17;;;;;;;2.50;0.90;;;;;;;;;;4352559;32;20196;-79
2021/10/05 11:38:44;;;;;;;6.20;1.35;;;;;;;;;;4375946;32;20166;-79
2021/10/05 11:41:09;;;;;;;5.82;1.33;;;;;;;;;;4377421;32;20600;-82
2021/10/05 11:43:48;;;;;;;2.30;1.12;;;;;;;;;;4377609;32;20166;-81
2021/10/05 11:46:19;;;;;;;5.32;1.40;;;;;;;;;;4391942;32;20161;-82
2021/10/05 11:48:46;;;;;;;3.47;1.12;;;;;;;;;;4377851;32;20166;-82
2021/10/05 11:51:45;;;;;;;;;;;;;;;;;;;;;
2021/10/05 11:54:36;;;;;;;6.60;1.80;;;;;;;;;;4383518;32;20496;-83
2021/10/05 11:57:08;;;;;;;4.45;1.65;;;;;;;;;;4378429;32;20184;-82
2021/10/05 11:59:36;;;;;;;4.93;1.30;;;;;;;;;;4378124;32;20212;-85
2021/10/05 12:03:15;;;;;;;8.27;1.60;;;;;;;;;;4392242;32;20173;-87
2021/10/05 12:05:44;;;;;;;5.18;1.35;;;;;;;;;;4379422;32;20205;-88
2021/10/05 12:17:17;;;;;;;;;;;;;;;;;;;;;
2021/10/05 12:20:06;;;;;;;;;;;;;;;;;;;;;
2021/10/05 12:23:10;;;;;;;8.05;1.70;;;;;;;;;;4408146;32;20157;-88
2021/10/05 12:26:17;;;;;;;;;;;;;;;;;;;;;
2021/10/05 12:29:15;;;;;;;6.70;1.75;;;;;;;;;;4400713;32;20166;-85
2021/10/05 12:35:00;;;;;;;3.58;1.67;;;;;;;;;;4403355;32;20452;-83
2021/10/05 12:37:36;;;;;;;7.95;2.25;;;;;;;;;;4392817;32;20188;-84
2021/10/05 12:40:42;;;;;;;;;;;;;;;;;;;;;
2021/10/05 12:46:19;;;;;;;4.53;1.60;;;;;;;;;;4406432;32;20184;-84
2021/10/05 12:49:12;;;;;;;4.55;1.60;;;;;;;;;;4385959;32;20160;-85
2021/10/05 12:54:53;;;;;;;4.28;2.00;;;;;;;;;;4376970;32;20173;-85
2021/10/05 12:57:49;;;;;;;5.78;1.92;;;;;;;;;;4363131;32;20189;-85
2021/10/05 13:00:35;;;;;;;5.70;2.10;;;;;;;;;;4375288;32;20529;-86
2021/10/05 13:03:44;;;;;;;2.28;1.73;;;;;;;;;;4360146;32;20201;-85
2021/10/05 13:06:44;;;;;;;7.65;1.92;;;;;;;;;;4377989;32;20205;-85
2021/10/05 13:09:27;;;;;;;5.20;1.80;;;;;;;;;;4385367;32;20226;-87
2021/10/05 13:12:26;;;;;;;;;;;;;;;;;;;;;
2021/10/05 13:15:19;;;;;;;7.00;2.20;;;;;;;;;;4393699;32;20146;-86
2021/10/05 13:24:49;;;;;;;6.68;2.85;;;;;;;;;;4286327;33;20212;-87
2021/10/05 13:33:23;;;;;;;9.50;3.47;;;;;;;;;;4258700;33;20275;-86
2021/10/05 13:39:22;;;;;;;7.20;3.10;;;;;;;;;;4271222;33;20160;-87
2021/10/05 13:45:49;;;;;;;;;;;;;;;;;;;;;
2021/10/05 13:48:59;;;;;;;;;;;;;;;;;;;;;
2021/10/05 13:51:31;;;;;;;4.18;2.58;;;;;;;;;;4252325;33;20600;-85
2021/10/05 14:21:53;;;;;;;;;;;;;;;;;;;;;
2021/10/05 14:34:59;;;;;;;3.30;1.70;;;;;;;;;;4255777;33;20215;-84
2021/10/05 14:37:40;;;;;;;1.87;1.30;;;;;;;;;;4251809;33;20169;-79
2021/10/05 14:40:34;;;;;;;2.87;1.60;;;;;;;;;;4254283;33;20606;-79
2021/10/05 14:43:02;;;;;;;3.70;1.90;;;;;;;;;;4253653;33;20208;-80
2021/10/05 14:45:27;;;;;;;4.60;1.70;;;;;;;;;;4257041;33;20226;-79
2021/10/05 14:50:58;;;;;;;5.18;1.50;;;;;;;;;;4257404;33;20760;-79
2021/10/05 14:53:55;;;;;;;4.93;1.70;;;;;;;;;;4269136;33;20661;-79
2021/10/05 14:59:42;;;;;;;7.47;1.20;;;;;;;;;;4268299;33;20193;-83
2021/10/05 15:02:35;;;;;;;;;;;;;;;;;;;;;
2021/10/05 15:05:14;;;;;;;3.75;1.40;;;;;;;;;;4270180;33;20176;-81
2021/10/05 15:07:53;;;;;;;7.55;1.40;;;;;;;;;;4269705;33;20156;-81
2021/10/05 15:10:26;;;;;;;9.45;1.50;;;;;;;;;;4272220;33;20153;-80
2021/10/05 15:16:02;;;;;;;4.62;1.60;;;;;;;;;;4274566;33;20209;-79
2021/10/05 15:18:27;;;;;;;4.40;1.37;;;;;;;;;;4274854;33;20153;-81
2021/10/05 15:21:02;;;;;;;4.10;1.20;;;;;;;;;;4274774;33;20189;-82
2021/10/05 15:23:27;;;;;;;4.30;1.00;;;;;;;;;;4262439;33;20207;-82
2021/10/05 15:25:52;;;;;;;7.00;1.20;;;;;;;;;;4275280;33;20227;-80
2021/10/05 15:28:20;;;;;;;3.28;1.00;;;;;;;;;;4273811;33;20165;-80
2021/10/05 15:30:45;;;;;;;10.10;1.45;;;;;;;;;;4274094;33;20629;-80
2021/10/05 15:33:49;;;;;;;4.32;1.12;;;;;;;;;;4273917;33;20169;-80
2021/10/05 15:36:18;;;;;;;;;;;;;;;;;;;;;
2021/10/05 15:38:52;;;;;;;8.00;1.35;;;;;;;;;;4274282;33;20175;-80
2021/10/05 15:41:25;;;;;;;7.90;1.37;;;;;;;;;;4274343;33;20272;-79
2021/10/05 15:44:08;;;;;;;7.78;1.70;;;;;;;;;;4274766;33;20167;-80
2021/10/05 15:46:48;;;;;;;6.10;1.20;;;;;;;;;;4273791;33;20169;-81
2021/10/05 15:49:14;;;;;;;6.82;1.40;;;;;;;;;;4274255;33;20277;-82
2021/10/05 15:54:26;;;;;;;4.53;1.40;;;;;;;;;;4274330;33;20490;-80
2021/10/05 15:56:51;;;;;;;8.23;1.55;;;;;;;;;;4274017;33;20180;-81
2021/10/05 15:59:22;;;;;;;7.82;1.42;;;;;;;;;;4283771;33;20588;-81
2021/10/05 16:01:53;;;;;;;6.62;1.55;;;;;;;;;;4288760;33;20167;-81
2021/10/05 16:04:21;;;;;;;6.65;1.37;;;;;;;;;;4299307;33;20599;-81
2021/10/05 16:06:46;;;;;;;4.00;0.98;;;;;;;;;;4278206;33;20167;-81
2021/10/05 16:09:17;;;;;;;7.43;1.20;;;;;;;;;;4274489;33;20137;-82
2021/10/05 16:11:42;;;;;;;5.70;1.20;;;;;;;;;;4273911;33;20138;-80
2021/10/05 16:14:11;;;;;;;4.57;1.17;;;;;;;;;;4272324;33;20185;-81
2021/10/05 16:16:48;;;;;;;6.30;1.33;;;;;;;;;;4271814;33;20176;-80
2021/10/05 16:19:24;;;;;;;5.68;1.37;;;;;;;;;;4274526;33;20630;-82
2021/10/05 16:21:55;;;;;;;3.92;1.17;;;;;;;;;;4272679;33;20184;-80
2021/10/05 16:24:21;;;;;;;6.75;1.40;;;;;;;;;;4276433;33;20160;-80
2021/10/05 16:26:46;;;;;;;5.72;1.10;;;;;;;;;;4281334;33;20240;-80
2021/10/05 16:29:17;;;;;;;6.37;1.25;;;;;;;;;;4272430;33;20157;-80
2021/10/05 16:31:43;;;;;;;6.50;1.30;;;;;;;;;;4273143;33;20185;-80
2021/10/05 16:34:20;;;;;;;5.65;1.35;;;;;;;;;;4272496;33;20160;-80
2021/10/05 16:36:46;;;;;;;5.50;1.40;;;;;;;;;;4260773;33;20164;-78
2021/10/05 16:39:11;;;;;;;9.70;1.50;;;;;;;;;;4273633;33;20169;-81
2021/10/05 16:41:36;;;;;;;6.55;1.05;;;;;;;;;;4273666;33;20491;-80
2021/10/05 16:44:05;;;;;;;5.10;1.30;;;;;;;;;;4260655;33;20201;-82
2021/10/05 16:46:33;;;;;;;7.25;1.92;;;;;;;;;;4272425;33;20169;-84
2021/10/05 16:49:06;;;;;;;6.12;1.42;;;;;;;;;;4272197;33;20157;-81
2021/10/05 16:51:42;;;;;;;5.55;1.20;;;;;;;;;;4273142;33;20192;-81
2021/10/05 16:54:07;;;;;;;7.75;1.30;;;;;;;;;;4273925;33;20184;-81